sensor_id;sensor_type;location;lat;lon;timestamp;pressure;altitude;pressure_sealevel;temperature;humidity
21706;BME280;11014;53.076;18.208;2022-08-01T00:01:30;101003.28;;;28.60;41.02
21706;BME280;11014;53.076;18.208;2022-08-01T00:03:59;101006.84;;;28.61;40.92
21706;BME280;11014;53.076;18.208;2022-08-01T00:06:27;100998.56;;;28.61;40.87
21706;BME280;11014;53.076;18.208;2022-08-01T00:08:56;101006.84;;;28.61;40.86
21706;BME280;11014;53.076;18.208;2022-08-01T00:11:24;101002.94;;;28.62;40.85
21706;BME280;11014;53.076;18.208;2022-08-01T00:13:53;101002.13;;;28.61;40.92
21706;BME280;11014;53.076;18.208;2022-08-01T00:16:21;101001.31;;;28.61;40.88
21706;BME280;11014;53.076;18.208;2022-08-01T00:18:51;101001.31;;;28.61;40.88
21706;BME280;11014;53.076;18.208;2022-08-01T00:21:19;101000.66;;;28.64;40.90
21706;BME280;11014;53.076;18.208;2022-08-01T00:23:48;100998.84;;;28.68;40.62
21706;BME280;11014;53.076;18.208;2022-08-01T00:26:16;100997.69;;;28.69;40.70
21706;BME280;11014;53.076;18.208;2022-08-01T00:28:44;101003.19;;;28.69;40.52
21706;BME280;11014;53.076;18.208;2022-08-01T00:31:13;101006.09;;;28.72;40.41
21706;BME280;11014;53.076;18.208;2022-08-01T00:33:41;100998.63;;;28.73;40.50
21706;BME280;11014;53.076;18.208;2022-08-01T00:36:10;100999.75;;;28.72;40.49
21706;BME280;11014;53.076;18.208;2022-08-01T00:38:38;100998.63;;;28.73;40.60
21706;BME280;11014;53.076;18.208;2022-08-01T00:41:06;100990.31;;;28.73;40.32
21706;BME280;11014;53.076;18.208;2022-08-01T00:43:35;100987.56;;;28.73;40.46
21706;BME280;11014;53.076;18.208;2022-08-01T00:46:03;100985.94;;;28.72;40.48
21706;BME280;11014;53.076;18.208;2022-08-01T00:48:32;100985.94;;;28.72;40.47
21706;BME280;11014;53.076;18.208;2022-08-01T00:51:02;100985.94;;;28.72;40.37
21706;BME280;11014;53.076;18.208;2022-08-01T00:53:32;100978.00;;;28.70;40.30
21706;BME280;11014;53.076;18.208;2022-08-01T00:56:20;100989.06;;;28.70;40.30
21706;BME280;11014;53.076;18.208;2022-08-01T00:58:49;100988.25;;;28.70;40.48
21706;BME280;11014;53.076;18.208;2022-08-01T01:01:18;100992.63;;;28.71;40.27
21706;BME280;11014;53.076;18.208;2022-08-01T01:03:51;100988.25;;;28.70;40.62
21706;BME280;11014;53.076;18.208;2022-08-01T01:13:18;100986.63;;;28.69;40.43
21706;BME280;11014;53.076;18.208;2022-08-01T01:15:22;100992.16;;;28.69;40.50
21706;BME280;11014;53.076;18.208;2022-08-01T01:18:08;100988.94;;;28.67;40.54
21706;BME280;11014;53.076;18.208;2022-08-01T01:20:41;100993.63;;;28.66;40.44
21706;BME280;11014;53.076;18.208;2022-08-01T01:23:29;100982.59;;;28.66;40.47
21706;BME280;11014;53.076;18.208;2022-08-01T01:26:21;100990.56;;;28.68;40.50
21706;BME280;11014;53.076;18.208;2022-08-01T01:32:14;100984.22;;;28.67;40.34
21706;BME280;11014;53.076;18.208;2022-08-01T01:34:48;100976.28;;;28.66;40.45
21706;BME280;11014;53.076;18.208;2022-08-01T01:37:19;100972.69;;;28.65;40.32
21706;BME280;11014;53.076;18.208;2022-08-01T01:39:50;100969.13;;;28.65;40.36
21706;BME280;11014;53.076;18.208;2022-08-01T01:42:22;100970.38;;;28.67;40.57
21706;BME280;11014;53.076;18.208;2022-08-01T01:44:53;100972.78;;;28.69;40.07
21706;BME280;11014;53.076;18.208;2022-08-01T01:47:23;100966.13;;;28.70;40.24
21706;BME280;11014;53.076;18.208;2022-08-01T01:49:52;100974.78;;;28.68;40.33
21706;BME280;11014;53.076;18.208;2022-08-01T01:52:23;100966.13;;;28.70;40.40
21706;BME280;11014;53.076;18.208;2022-08-01T01:54:54;100968.06;;;28.69;40.27
21706;BME280;11014;53.076;18.208;2022-08-01T01:57:26;100974.41;;;28.70;40.24
21706;BME280;11014;53.076;18.208;2022-08-01T01:59:57;100964.50;;;28.69;40.31
21706;BME280;11014;53.076;18.208;2022-08-01T02:02:27;100970.84;;;28.69;40.06
21706;BME280;11014;53.076;18.208;2022-08-01T02:04:57;100971.66;;;28.70;39.98
21706;BME280;11014;53.076;18.208;2022-08-01T02:07:27;100970.03;;;28.69;40.45
21706;BME280;11014;53.076;18.208;2022-08-01T02:09:57;100964.50;;;28.69;40.34
21706;BME280;11014;53.076;18.208;2022-08-01T02:12:29;100972.00;;;28.68;40.33
21706;BME280;11014;53.076;18.208;2022-08-01T02:15:00;100974.78;;;28.68;40.40
21706;BME280;11014;53.076;18.208;2022-08-01T02:17:30;100973.97;;;28.68;40.08
21706;BME280;11014;53.076;18.208;2022-08-01T02:19:59;100964.50;;;28.69;40.36
21706;BME280;11014;53.076;18.208;2022-08-01T02:22:34;100973.97;;;28.68;40.19
21706;BME280;11014;53.076;18.208;2022-08-01T02:28:01;100962.09;;;28.67;40.09
21706;BME280;11014;53.076;18.208;2022-08-01T02:30:35;100969.25;;;28.68;40.11
21706;BME280;11014;53.076;18.208;2022-08-01T02:33:12;100966.34;;;28.65;40.03
21706;BME280;11014;53.076;18.208;2022-08-01T02:35:47;100964.41;;;28.65;40.17
21706;BME280;11014;53.076;18.208;2022-08-01T02:38:41;100972.34;;;28.67;39.97
21706;BME280;11014;53.076;18.208;2022-08-01T02:41:15;100972.34;;;28.67;40.28
21706;BME280;11014;53.076;18.208;2022-08-01T02:43:48;100969.13;;;28.65;40.03
21706;BME280;11014;53.076;18.208;2022-08-01T02:46:34;100970.75;;;28.66;39.92
21706;BME280;11014;53.076;18.208;2022-08-01T02:49:06;100974.66;;;28.65;40.17
21706;BME280;11014;53.076;18.208;2022-08-01T02:51:36;100976.28;;;28.66;40.03
21706;BME280;11014;53.076;18.208;2022-08-01T02:54:07;100967.50;;;28.64;40.03
21706;BME280;11014;53.076;18.208;2022-08-01T02:56:36;100967.50;;;28.64;40.25
21706;BME280;11014;53.076;18.208;2022-08-01T02:59:08;100973.03;;;28.64;40.33
21706;BME280;11014;53.076;18.208;2022-08-01T03:01:42;100971.06;;;28.64;39.93
21706;BME280;11014;53.076;18.208;2022-08-01T03:04:12;100973.84;;;28.64;39.92
21706;BME280;11014;53.076;18.208;2022-08-01T03:06:41;100968.31;;;28.64;39.91
21706;BME280;11014;53.076;18.208;2022-08-01T03:09:13;100970.25;;;28.64;40.09
21706;BME280;11014;53.076;18.208;2022-08-01T03:11:45;100967.50;;;28.64;39.90
21706;BME280;11014;53.076;18.208;2022-08-01T03:14:16;100978.56;;;28.64;40.18
21706;BME280;11014;53.076;18.208;2022-08-01T03:16:46;100971.72;;;28.61;40.01
21706;BME280;11014;53.076;18.208;2022-08-01T03:19:16;100969.78;;;28.62;39.95
21706;BME280;11014;53.076;18.208;2022-08-01T03:21:47;100968.84;;;28.58;39.91
21706;BME280;11014;53.076;18.208;2022-08-01T03:24:16;100975.06;;;28.55;40.06
21706;BME280;11014;53.076;18.208;2022-08-01T03:26:46;100968.72;;;28.54;40.16
21706;BME280;11014;53.076;18.208;2022-08-01T03:29:18;100973.00;;;28.52;39.98
21706;BME280;11014;53.076;18.208;2022-08-01T03:31:48;100976.22;;;28.54;40.08
21706;BME280;11014;53.076;18.208;2022-08-01T03:34:18;100974.94;;;28.51;40.26
21706;BME280;11014;53.076;18.208;2022-08-01T03:39:31;100968.59;;;28.51;40.31
21706;BME280;11014;53.076;18.208;2022-08-01T03:42:07;100966.97;;;28.50;40.28
21706;BME280;11014;53.076;18.208;2022-08-01T03:44:39;100969.72;;;28.50;40.24
21706;BME280;11014;53.076;18.208;2022-08-01T03:47:09;100970.91;;;28.49;40.28
21706;BME280;11014;53.076;18.208;2022-08-01T03:49:45;100970.09;;;28.48;40.30
21706;BME280;11014;53.076;18.208;2022-08-01T03:52:15;100973.44;;;28.54;40.02
21706;BME280;11014;53.076;18.208;2022-08-01T03:54:47;100973.91;;;28.56;40.06
21706;BME280;11014;53.076;18.208;2022-08-01T03:57:15;100973.66;;;28.61;39.95
21706;BME280;11014;53.076;18.208;2022-08-01T04:00:04;100972.63;;;28.53;39.96
21706;BME280;11014;53.076;18.208;2022-08-01T04:02:39;100967.69;;;28.47;40.25
21706;BME280;11014;53.076;18.208;2022-08-01T04:05:08;100966.88;;;28.46;40.38
21706;BME280;11014;53.076;18.208;2022-08-01T04:07:37;100968.81;;;28.46;40.07
21706;BME280;11014;53.076;18.208;2022-08-01T04:10:07;100969.28;;;28.48;40.30
21706;BME280;11014;53.076;18.208;2022-08-01T04:12:36;100974.00;;;28.47;40.18
21706;BME280;11014;53.076;18.208;2022-08-01T04:15:05;100979.66;;;28.51;40.21
21706;BME280;11014;53.076;18.208;2022-08-01T04:17:33;100974.59;;;28.53;40.07
21706;BME280;11014;53.076;18.208;2022-08-01T04:20:02;100968.72;;;28.54;40.11
21706;BME280;11014;53.076;18.208;2022-08-01T04:22:30;100974.25;;;28.54;40.14
21706;BME280;11014;53.076;18.208;2022-08-01T04:25:12;100975.06;;;28.55;40.06
21706;BME280;11014;53.076;18.208;2022-08-01T04:27:43;100968.72;;;28.54;39.94
21706;BME280;11014;53.076;18.208;2022-08-01T04:30:22;100968.72;;;28.54;39.94
21706;BME280;11014;53.076;18.208;2022-08-01T04:32:54;100970.69;;;28.54;39.97
21706;BME280;11014;53.076;18.208;2022-08-01T04:35:24;100969.53;;;28.55;40.08
21706;BME280;11014;53.076;18.208;2022-08-01T04:38:20;100980.59;;;28.55;39.99
21706;BME280;11014;53.076;18.208;2022-08-01T04:40:52;100978.03;;;28.50;39.94
21706;BME280;11014;53.076;18.208;2022-08-01T04:43:22;100986.81;;;28.52;40.21
21706;BME280;11014;53.076;18.208;2022-08-01T04:45:52;100978.75;;;28.47;40.24
21706;BME280;11014;53.076;18.208;2022-08-01T04:48:21;100978.03;;;28.50;39.83
21706;BME280;11014;53.076;18.208;2022-08-01T04:50:52;100984.03;;;28.52;40.12
21706;BME280;11014;53.076;18.208;2022-08-01T04:53:20;100986.81;;;28.52;40.11
21706;BME280;11014;53.076;18.208;2022-08-01T04:55:51;100979.31;;;28.52;40.02
21706;BME280;11014;53.076;18.208;2022-08-01T04:58:20;100982.09;;;28.52;40.02
21706;BME280;11014;53.076;18.208;2022-08-01T05:00:48;100975.75;;;28.52;39.99
21706;BME280;11014;53.076;18.208;2022-08-01T05:03:17;100981.28;;;28.52;40.05
21706;BME280;11014;53.076;18.208;2022-08-01T05:05:45;100982.88;;;28.53;40.19
21706;BME280;11014;53.076;18.208;2022-08-01T05:08:13;100982.88;;;28.53;40.19
21706;BME280;11014;53.076;18.208;2022-08-01T05:10:42;100986.13;;;28.55;40.14
21706;BME280;11014;53.076;18.208;2022-08-01T05:13:10;100984.50;;;28.54;40.15
21706;BME280;11014;53.076;18.208;2022-08-01T05:15:39;100988.88;;;28.55;40.08
21706;BME280;11014;53.076;18.208;2022-08-01T05:18:08;100983.69;;;28.53;39.82
21706;BME280;11014;53.076;18.208;2022-08-01T05:20:37;100984.50;;;28.54;39.94
21706;BME280;11014;53.076;18.208;2022-08-01T05:23:05;100984.50;;;28.54;40.23
21706;BME280;11014;53.076;18.208;2022-08-01T05:25:37;100985.31;;;28.54;40.00
21706;BME280;11014;53.076;18.208;2022-08-01T05:28:25;100980.59;;;28.55;40.03
21706;BME280;11014;53.076;18.208;2022-08-01T05:30:53;100971.81;;;28.53;39.98
21706;BME280;11014;53.076;18.208;2022-08-01T05:33:23;100982.88;;;28.53;39.76
21706;BME280;11014;53.076;18.208;2022-08-01T05:35:51;100978.97;;;28.54;40.05
21706;BME280;11014;53.076;18.208;2022-08-01T05:38:19;100981.38;;;28.55;40.05
21706;BME280;11014;53.076;18.208;2022-08-01T05:40:48;100986.13;;;28.55;40.05
21706;BME280;11014;53.076;18.208;2022-08-01T05:43:16;100982.53;;;28.54;40.03
21706;BME280;11014;53.076;18.208;2022-08-01T05:45:45;100986.91;;;28.55;39.88
21706;BME280;11014;53.076;18.208;2022-08-01T05:48:14;100981.38;;;28.55;39.95
21706;BME280;11014;53.076;18.208;2022-08-01T05:50:42;100981.38;;;28.55;40.11
21706;BME280;11014;53.076;18.208;2022-08-01T05:53:11;100980.59;;;28.55;40.14
21706;BME280;11014;53.076;18.208;2022-08-01T05:55:40;100982.53;;;28.54;40.17
21706;BME280;11014;53.076;18.208;2022-08-01T05:58:08;100973.44;;;28.54;39.86
21706;BME280;11014;53.076;18.208;2022-08-01T06:00:39;100973.44;;;28.54;39.95
21706;BME280;11014;53.076;18.208;2022-08-01T06:03:08;100976.22;;;28.54;40.17
21706;BME280;11014;53.076;18.208;2022-08-01T06:05:37;100968.72;;;28.54;39.90
21706;BME280;11014;53.076;18.208;2022-08-01T06:08:05;100965.59;;;28.56;39.96
21706;BME280;11014;53.076;18.208;2022-08-01T06:10:34;100965.97;;;28.54;40.01
21706;BME280;11014;53.076;18.208;2022-08-01T06:13:02;100964.00;;;28.55;39.97
21706;BME280;11014;53.076;18.208;2022-08-01T06:15:32;100970.31;;;28.55;40.10
21706;BME280;11014;53.076;18.208;2022-08-01T06:18:00;100966.78;;;28.55;39.73
21706;BME280;11014;53.076;18.208;2022-08-01T06:20:28;100975.84;;;28.55;39.93
21706;BME280;11014;53.076;18.208;2022-08-01T06:22:57;100975.84;;;28.55;39.81
21706;BME280;11014;53.076;18.208;2022-08-01T06:25:29;100975.84;;;28.55;39.99
21706;BME280;11014;53.076;18.208;2022-08-01T06:27:58;100977.03;;;28.54;39.96
21706;BME280;11014;53.076;18.208;2022-08-01T06:30:26;100974.25;;;28.54;40.03
21706;BME280;11014;53.076;18.208;2022-08-01T06:32:54;100975.06;;;28.55;39.96
21706;BME280;11014;53.076;18.208;2022-08-01T06:35:26;100970.69;;;28.54;39.96
21706;BME280;11014;53.076;18.208;2022-08-01T06:37:57;100970.69;;;28.54;39.87
21706;BME280;11014;53.076;18.208;2022-08-01T06:40:25;100975.06;;;28.55;39.92
21706;BME280;11014;53.076;18.208;2022-08-01T06:42:53;100964.00;;;28.55;39.96
21706;BME280;11014;53.076;18.208;2022-08-01T06:45:22;100965.97;;;28.54;40.07
21706;BME280;11014;53.076;18.208;2022-08-01T06:47:52;100965.16;;;28.54;39.87
21706;BME280;11014;53.076;18.208;2022-08-01T06:50:21;100961.25;;;28.55;39.96
21706;BME280;11014;53.076;18.208;2022-08-01T06:52:49;100969.34;;;28.27;40.41
21706;BME280;11014;53.076;18.208;2022-08-01T06:55:18;100972.88;;;28.15;40.65
21706;BME280;11014;53.076;18.208;2022-08-01T06:57:52;100967.22;;;28.12;40.83
21706;BME280;11014;53.076;18.208;2022-08-01T07:00:21;100967.88;;;28.09;40.77
21706;BME280;11014;53.076;18.208;2022-08-01T07:02:56;100967.09;;;28.08;40.91
21706;BME280;11014;53.076;18.208;2022-08-01T07:05:25;100965.47;;;28.07;40.98
21706;BME280;11014;53.076;18.208;2022-08-01T07:07:54;100970.53;;;28.05;40.88
21706;BME280;11014;53.076;18.208;2022-08-01T07:10:22;100978.81;;;28.05;40.94
21706;BME280;11014;53.076;18.208;2022-08-01T07:12:51;100973.31;;;28.05;40.92
21706;BME280;11014;53.076;18.208;2022-08-01T07:15:19;100978.81;;;28.05;40.77
21706;BME280;11014;53.076;18.208;2022-08-01T07:17:49;100971.69;;;28.04;41.06
21706;BME280;11014;53.076;18.208;2022-08-01T07:20:18;100971.69;;;28.04;40.90
21706;BME280;11014;53.076;18.208;2022-08-01T07:22:47;100970.06;;;28.03;40.97
21706;BME280;11014;53.076;18.208;2022-08-01T07:25:17;100968.09;;;28.04;40.95
21706;BME280;11014;53.076;18.208;2022-08-01T07:27:46;100972.81;;;28.03;40.93
21706;BME280;11014;53.076;18.208;2022-08-01T07:30:14;100970.06;;;28.03;41.17
21706;BME280;11014;53.076;18.208;2022-08-01T07:32:42;100970.53;;;28.05;40.86
21706;BME280;11014;53.076;18.208;2022-08-01T07:35:10;100973.31;;;28.05;40.88
21706;BME280;11014;53.076;18.208;2022-08-01T07:37:39;100981.09;;;28.03;41.07
21706;BME280;11014;53.076;18.208;2022-08-01T07:40:17;100968.44;;;28.02;41.17
21706;BME280;11014;53.076;18.208;2022-08-01T07:42:46;100973.13;;;28.02;41.11
21706;BME280;11014;53.076;18.208;2022-08-01T07:45:15;100976.25;;;28.00;40.96
21706;BME280;11014;53.076;18.208;2022-08-01T07:47:43;100976.25;;;28.00;40.87
21706;BME280;11014;53.076;18.208;2022-08-01T07:50:12;100975.06;;;28.01;40.92
21706;BME280;11014;53.076;18.208;2022-08-01T07:52:41;100974.25;;;28.01;41.04
21706;BME280;11014;53.076;18.208;2022-08-01T07:55:11;100964.38;;;28.00;41.02
21706;BME280;11014;53.076;18.208;2022-08-01T07:57:44;100965.97;;;28.01;41.12
21706;BME280;11014;53.076;18.208;2022-08-01T08:00:13;100969.91;;;28.00;41.12
21706;BME280;11014;53.076;18.208;2022-08-01T08:02:41;100976.25;;;28.00;40.82
21706;BME280;11014;53.076;18.208;2022-08-01T08:05:11;100969.09;;;27.99;40.91
21706;BME280;11014;53.076;18.208;2022-08-01T08:07:39;100975.44;;;28.00;40.97
21706;BME280;11014;53.076;18.208;2022-08-01T08:10:08;100963.56;;;27.99;41.21
21706;BME280;11014;53.076;18.208;2022-08-01T08:12:37;100974.63;;;27.99;41.18
21706;BME280;11014;53.076;18.208;2022-08-01T08:15:06;100974.63;;;27.99;40.99
21706;BME280;11014;53.076;18.208;2022-08-01T08:17:35;100982.56;;;28.21;40.34
21706;BME280;11014;53.076;18.208;2022-08-01T08:20:06;100982.56;;;28.21;40.76
21706;BME280;11014;53.076;18.208;2022-08-01T08:22:37;100977.56;;;28.36;40.26
21706;BME280;11014;53.076;18.208;2022-08-01T08:25:06;100976.06;;;28.38;40.07
21706;BME280;11014;53.076;18.208;2022-08-01T08:27:35;100977.56;;;28.36;40.36
21706;BME280;11014;53.076;18.208;2022-08-01T08:30:05;100974.56;;;28.41;40.32
21706;BME280;11014;53.076;18.208;2022-08-01T08:32:36;100977.78;;;28.43;40.04
21706;BME280;11014;53.076;18.208;2022-08-01T08:35:05;100977.78;;;28.43;40.20
21706;BME280;11014;53.076;18.208;2022-08-01T08:37:35;100990.47;;;28.44;39.99
21706;BME280;11014;53.076;18.208;2022-08-01T08:40:10;100981.81;;;28.45;40.09
21706;BME280;11014;53.076;18.208;2022-08-01T08:42:39;100986.53;;;28.45;40.21
21706;BME280;11014;53.076;18.208;2022-08-01T08:45:08;100982.63;;;28.46;40.03
21706;BME280;11014;53.076;18.208;2022-08-01T08:47:41;100983.44;;;28.46;40.02
21706;BME280;11014;53.076;18.208;2022-08-01T08:50:10;100989.78;;;28.47;40.12
21706;BME280;11014;53.076;18.208;2022-08-01T08:52:39;100999.22;;;28.46;40.20
21706;BME280;11014;53.076;18.208;2022-08-01T08:55:09;100988.16;;;28.46;40.01
21706;BME280;11014;53.076;18.208;2022-08-01T08:57:40;100994.06;;;28.23;40.44
21706;BME280;11014;53.076;18.208;2022-08-01T09:00:11;100994.38;;;28.43;40.01
21706;BME280;11014;53.076;18.208;2022-08-01T09:02:46;100993.22;;;28.44;40.01
21706;BME280;11014;53.076;18.208;2022-08-01T09:05:15;100988.16;;;28.46;40.05
21706;BME280;11014;53.076;18.208;2022-08-01T09:07:46;100986.91;;;28.55;39.84
21706;BME280;11014;53.076;18.208;2022-08-01T09:10:15;100996.09;;;28.47;39.99
21706;BME280;11014;53.076;18.208;2022-08-01T09:13:22;100992.06;;;28.45;40.09
21706;BME280;11014;53.076;18.208;2022-08-01T09:15:52;100998.75;;;28.44;40.10
21706;BME280;11014;53.076;18.208;2022-08-01T09:18:30;100991.59;;;28.43;40.25
21706;BME280;11014;53.076;18.208;2022-08-01T09:21:20;100992.75;;;28.42;40.09
21706;BME280;11014;53.076;18.208;2022-08-01T09:23:53;100999.91;;;28.43;40.02
21706;BME280;11014;53.076;18.208;2022-08-01T09:26:32;101003.56;;;28.35;40.25
21706;BME280;11014;53.076;18.208;2022-08-01T09:29:04;101000.56;;;28.40;40.18
21706;BME280;11014;53.076;18.208;2022-08-01T09:31:39;100997.84;;;28.52;39.89
21706;BME280;11014;53.076;18.208;2022-08-01T09:34:08;101006.09;;;28.40;39.87
21706;BME280;11014;53.076;18.208;2022-08-01T09:36:49;101010.03;;;28.39;40.02
21706;BME280;11014;53.076;18.208;2022-08-01T09:39:26;101008.16;;;28.31;40.33
21706;BME280;11014;53.076;18.208;2022-08-01T09:41:56;101008.94;;;28.31;40.37
21706;BME280;11014;53.076;18.208;2022-08-01T09:44:40;101000.34;;;28.33;40.24
21706;BME280;11014;53.076;18.208;2022-08-01T09:47:13;101000.44;;;28.36;40.12
21706;BME280;11014;53.076;18.208;2022-08-01T09:49:43;101008.31;;;28.13;40.74
21706;BME280;11014;53.076;18.208;2022-08-01T09:52:25;101001.59;;;28.35;40.21
21706;BME280;11014;53.076;18.208;2022-08-01T09:55:03;101004.50;;;28.39;40.22
21706;BME280;11014;53.076;18.208;2022-08-01T09:57:31;101001.25;;;28.37;40.31
21706;BME280;11014;53.076;18.208;2022-08-01T10:00:03;100997.22;;;28.34;40.28
21706;BME280;11014;53.076;18.208;2022-08-01T10:02:40;100999.97;;;28.34;40.32
21706;BME280;11014;53.076;18.208;2022-08-01T10:05:11;100999.16;;;28.34;40.04
21706;BME280;11014;53.076;18.208;2022-08-01T10:08:17;100989.75;;;28.35;40.27
21706;BME280;11014;53.076;18.208;2022-08-01T10:11:10;100996.66;;;28.41;40.12
21706;BME280;11014;53.076;18.208;2022-08-01T10:13:40;101002.88;;;28.38;40.28
21706;BME280;11014;53.076;18.208;2022-08-01T10:16:12;100988.94;;;28.34;40.30
21706;BME280;11014;53.076;18.208;2022-08-01T10:18:43;100994.81;;;28.33;40.20
21706;BME280;11014;53.076;18.208;2022-08-01T10:21:14;100997.56;;;28.33;40.24
21706;BME280;11014;53.076;18.208;2022-08-01T10:24:04;100999.16;;;28.34;40.18
21706;BME280;11014;53.076;18.208;2022-08-01T10:26:34;100987.13;;;28.38;39.96
21706;BME280;11014;53.076;18.208;2022-08-01T10:29:07;100991.16;;;28.41;39.91
21706;BME280;11014;53.076;18.208;2022-08-01T10:31:56;100990.19;;;28.37;40.13
21706;BME280;11014;53.076;18.208;2022-08-01T10:34:27;100982.25;;;28.35;40.19
21706;BME280;11014;53.076;18.208;2022-08-01T10:36:57;100981.44;;;28.35;40.42
21706;BME280;11014;53.076;18.208;2022-08-01T10:39:28;100981.44;;;28.35;40.26
21706;BME280;11014;53.076;18.208;2022-08-01T10:42:01;100975.94;;;28.35;40.27
21706;BME280;11014;53.076;18.208;2022-08-01T10:44:36;100964.88;;;28.35;40.27
21706;BME280;11014;53.076;18.208;2022-08-01T10:47:17;100970.41;;;28.35;40.47
21706;BME280;11014;53.076;18.208;2022-08-01T10:50:02;100966.50;;;28.36;40.39
21706;BME280;11014;53.076;18.208;2022-08-01T10:52:32;100967.28;;;28.36;40.25
21706;BME280;11014;53.076;18.208;2022-08-01T10:55:08;100964.53;;;28.36;40.13
21706;BME280;11014;53.076;18.208;2022-08-01T10:57:46;100962.56;;;28.37;40.17
21706;BME280;11014;53.076;18.208;2022-08-01T11:00:21;100970.03;;;28.36;40.32
21706;BME280;11014;53.076;18.208;2022-08-01T11:03:00;100970.03;;;28.36;40.41
21706;BME280;11014;53.076;18.208;2022-08-01T11:05:34;100967.28;;;28.36;40.27
21706;BME280;11014;53.076;18.208;2022-08-01T11:08:22;100969.72;;;28.38;40.35
21706;BME280;11014;53.076;18.208;2022-08-01T11:11:00;100969.72;;;28.38;40.27
21706;BME280;11014;53.076;18.208;2022-08-01T11:14:02;100960.28;;;28.39;40.14
21706;BME280;11014;53.076;18.208;2022-08-01T11:16:41;100966.28;;;28.41;40.31
21706;BME280;11014;53.076;18.208;2022-08-01T11:19:10;100965.00;;;28.38;40.07
21706;BME280;11014;53.076;18.208;2022-08-01T11:27:26;100964.44;;;28.45;40.05
21706;BME280;11014;53.076;18.208;2022-08-01T11:35:36;100965.09;;;28.42;40.00
21706;BME280;11014;53.076;18.208;2022-08-01T11:38:25;100960.28;;;28.39;40.14
21706;BME280;11014;53.076;18.208;2022-08-01T11:41:23;100959.59;;;28.42;40.36
21706;BME280;11014;53.076;18.208;2022-08-01T11:44:18;100964.66;;;28.40;40.22
21706;BME280;11014;53.076;18.208;2022-08-01T11:49:43;100954.88;;;28.42;40.38
21706;BME280;11014;53.076;18.208;2022-08-01T11:52:28;100955.00;;;28.46;40.12
21706;BME280;11014;53.076;18.208;2022-08-01T11:55:05;100959.41;;;28.47;40.03
21706;BME280;11014;53.076;18.208;2022-08-01T11:57:38;100959.03;;;28.48;40.10
21706;BME280;11014;53.076;18.208;2022-08-01T12:00:11;100951.09;;;28.47;39.94
21706;BME280;11014;53.076;18.208;2022-08-01T12:03:06;100950.75;;;28.48;40.05
21706;BME280;11014;53.076;18.208;2022-08-01T12:05:35;100955.00;;;28.46;40.22
21706;BME280;11014;53.076;18.208;2022-08-01T12:08:10;100954.66;;;28.47;40.00
21706;BME280;11014;53.076;18.208;2022-08-01T12:10:38;100966.97;;;28.50;39.95
21706;BME280;11014;53.076;18.208;2022-08-01T12:13:17;100963.06;;;28.51;40.11
21706;BME280;11014;53.076;18.208;2022-08-01T12:15:48;100959.16;;;28.52;39.98
21706;BME280;11014;53.076;18.208;2022-08-01T12:18:23;100964.69;;;28.52;40.03
21706;BME280;11014;53.076;18.208;2022-08-01T12:21:02;100961.44;;;28.50;40.15
21706;BME280;11014;53.076;18.208;2022-08-01T12:23:31;100954.31;;;28.49;40.10
21706;BME280;11014;53.076;18.208;2022-08-01T12:26:00;100959.84;;;28.49;40.22
21706;BME280;11014;53.076;18.208;2022-08-01T12:28:28;100959.03;;;28.48;40.17
21706;BME280;11014;53.076;18.208;2022-08-01T12:30:57;100952.69;;;28.48;40.14
21706;BME280;11014;53.076;18.208;2022-08-01T12:33:25;100960.75;;;28.53;40.08
21706;BME280;11014;53.076;18.208;2022-08-01T12:35:54;100962.53;;;28.57;39.89
21706;BME280;11014;53.076;18.208;2022-08-01T12:38:22;100962.16;;;28.59;39.83
21706;BME280;11014;53.076;18.208;2022-08-01T12:40:52;100949.97;;;28.60;39.97
21706;BME280;11014;53.076;18.208;2022-08-01T12:43:23;100948.81;;;28.61;40.14
21706;BME280;11014;53.076;18.208;2022-08-01T12:45:58;100948.34;;;28.59;39.75
21706;BME280;11014;53.076;18.208;2022-08-01T12:48:28;100946.31;;;28.68;39.83
21706;BME280;11014;53.076;18.208;2022-08-01T12:50:59;100945.38;;;28.64;39.82
21706;BME280;11014;53.076;18.208;2022-08-01T12:53:34;100946.03;;;28.61;39.94
21706;BME280;11014;53.076;18.208;2022-08-01T12:56:09;100948.34;;;28.59;40.16
21706;BME280;11014;53.076;18.208;2022-08-01T12:58:39;100949.97;;;28.60;39.84
21706;BME280;11014;53.076;18.208;2022-08-01T13:01:09;100953.19;;;28.62;40.01
21706;BME280;11014;53.076;18.208;2022-08-01T13:03:39;100947.66;;;28.62;39.86
21706;BME280;11014;53.076;18.208;2022-08-01T13:06:12;100947.66;;;28.62;39.92
21706;BME280;11014;53.076;18.208;2022-08-01T13:08:44;100943.78;;;28.63;39.88
21706;BME280;11014;53.076;18.208;2022-08-01T13:11:15;100949.31;;;28.63;40.03
21706;BME280;11014;53.076;18.208;2022-08-01T13:13:50;100954.84;;;28.63;39.75
21706;BME280;11014;53.076;18.208;2022-08-01T13:16:22;100947.66;;;28.62;39.70
21706;BME280;11014;53.076;18.208;2022-08-01T13:19:10;100947.66;;;28.62;39.88
21706;BME280;11014;53.076;18.208;2022-08-01T13:21:38;100943.09;;;28.66;39.80
21706;BME280;11014;53.076;18.208;2022-08-01T13:24:28;100946.31;;;28.68;39.94
21706;BME280;11014;53.076;18.208;2022-08-01T13:26:59;100951.84;;;28.68;39.88
21706;BME280;11014;53.076;18.208;2022-08-01T13:29:39;100946.31;;;28.68;39.89
21706;BME280;11014;53.076;18.208;2022-08-01T13:32:15;100945.16;;;28.69;39.83
21706;BME280;11014;53.076;18.208;2022-08-01T13:35:05;100946.31;;;28.68;40.14
21706;BME280;11014;53.076;18.208;2022-08-01T13:37:36;100945.50;;;28.67;39.90